createdAt,value
2022-12-08T00:02:13.866Z,44.30
2022-12-08T00:07:34.219Z,44.28
2022-12-08T00:12:38.342Z,44.70
2022-12-08T00:17:41.130Z,44.58
2022-12-08T00:22:43.981Z,44.73
2022-12-08T00:27:48.134Z,44.80
2022-12-08T00:32:50.851Z,44.90
2022-12-08T00:37:59.106Z,44.75
2022-12-08T00:43:04.834Z,45.22
2022-12-08T00:48:07.693Z,45.18
2022-12-08T00:53:10.498Z,45.15
2022-12-08T00:58:14.590Z,45.20
2022-12-08T01:03:17.532Z,45.15
2022-12-08T01:08:20.446Z,45.39
2022-12-08T01:13:24.657Z,45.20
2022-12-08T01:18:27.919Z,45.15
2022-12-08T01:23:30.960Z,45.32
2022-12-08T01:28:35.120Z,45.23
2022-12-08T01:33:37.858Z,45.29
2022-12-08T01:38:40.667Z,45.17
2022-12-08T01:43:58.900Z,45.10
2022-12-08T01:49:03.912Z,45.36
2022-12-08T01:54:06.827Z,45.53
2022-12-08T01:59:10.999Z,45.83
2022-12-08T02:04:13.769Z,45.88
2022-12-08T02:09:16.537Z,46.15
2022-12-08T02:14:20.681Z,46.45
2022-12-08T02:19:50.498Z,46.69
2022-12-08T02:24:56.793Z,46.86
2022-12-08T02:30:07.894Z,47.19
2022-12-08T02:35:12.966Z,47.41
2022-12-08T02:40:18.598Z,47.38
2022-12-08T02:45:23.781Z,47.51
2022-12-08T02:50:27.943Z,47.67
2022-12-08T02:55:33.002Z,47.62
2022-12-08T03:00:39.238Z,47.95
2022-12-08T03:05:55.705Z,47.82
2022-12-08T03:11:01.107Z,48.15
2022-12-08T03:16:04.159Z,48.09
2022-12-08T03:21:08.415Z,48.36
2022-12-08T03:26:13.248Z,48.81
2022-12-08T03:31:16.063Z,48.73
2022-12-08T03:36:20.255Z,48.96
2022-12-08T03:41:23.257Z,49.32
2022-12-08T03:51:30.321Z,49.39
2022-12-08T03:56:34.428Z,49.26
2022-12-08T04:01:37.517Z,49.49
2022-12-08T04:06:41.698Z,49.67
2022-12-08T04:11:44.443Z,49.96
2022-12-08T04:16:47.223Z,50.03
2022-12-08T04:21:51.494Z,50.46
2022-12-08T04:26:54.334Z,50.76
2022-12-08T04:31:57.131Z,50.80
2022-12-08T04:37:01.348Z,50.76
2022-12-08T04:42:04.261Z,50.49
2022-12-08T04:47:07.032Z,50.46
2022-12-08T04:52:11.257Z,50.67
2022-12-08T04:57:14.036Z,50.54
2022-12-08T05:02:16.883Z,50.64
2022-12-08T05:07:21.716Z,50.40
2022-12-08T05:12:24.531Z,50.70
2022-12-08T05:17:27.322Z,50.63
2022-12-08T05:22:31.512Z,50.89
2022-12-08T05:27:34.321Z,50.76
2022-12-08T05:32:37.076Z,50.76
2022-12-08T05:37:41.177Z,50.78
2022-12-08T05:42:43.932Z,50.60
2022-12-08T05:47:46.712Z,50.51
2022-12-08T05:52:50.841Z,50.91
2022-12-08T05:57:53.652Z,50.51
2022-12-08T06:02:56.515Z,50.69
2022-12-08T06:08:00.734Z,50.58
2022-12-08T06:13:03.580Z,50.49
2022-12-08T06:18:06.762Z,50.49
2022-12-08T06:23:11.028Z,50.86
2022-12-08T06:28:13.797Z,50.41
2022-12-08T06:33:16.592Z,50.65
2022-12-08T06:38:20.729Z,50.68
2022-12-08T06:43:23.525Z,50.69
2022-12-08T06:48:26.597Z,50.53
2022-12-08T06:53:30.721Z,50.61
2022-12-08T06:58:33.531Z,50.62
2022-12-08T07:03:36.292Z,50.63
2022-12-08T07:08:40.434Z,50.81
2022-12-08T07:13:43.196Z,50.80
2022-12-08T07:18:45.950Z,50.81
2022-12-08T07:23:57.112Z,50.84
2022-12-08T07:29:01.104Z,50.70
2022-12-08T07:34:03.898Z,50.69
2022-12-08T07:39:08.059Z,51.00
2022-12-08T07:44:13.458Z,51.03
2022-12-08T07:49:16.407Z,50.99
2022-12-08T07:54:20.732Z,50.77
2022-12-08T07:59:23.488Z,50.78
2022-12-08T08:04:26.401Z,50.72
2022-12-08T08:09:30.634Z,51.00
2022-12-08T08:14:33.452Z,43.18
2022-12-08T08:19:36.197Z,35.71
2022-12-08T08:24:44.854Z,36.61
2022-12-08T08:29:48.105Z,38.97
2022-12-08T08:34:51.707Z,38.93
2022-12-08T08:39:56.516Z,39.53
2022-12-08T08:44:59.284Z,39.67
2022-12-08T08:50:02.385Z,40.41
2022-12-08T08:55:07.708Z,40.93
2022-12-08T09:00:12.201Z,41.44
2022-12-08T09:05:14.960Z,41.62
2022-12-08T09:10:19.254Z,41.86
2022-12-08T09:15:21.996Z,41.81
2022-12-08T09:20:24.818Z,41.90
2022-12-08T09:25:29.226Z,41.78
2022-12-08T09:30:32.037Z,41.95
2022-12-08T09:35:34.872Z,41.72
2022-12-08T09:40:42.809Z,41.83
2022-12-08T09:45:45.607Z,42.00
2022-12-08T09:50:52.490Z,41.91
2022-12-08T09:55:57.541Z,41.91
2022-12-08T10:01:00.380Z,42.19
2022-12-08T10:06:05.725Z,42.13
2022-12-08T10:11:12.296Z,42.44
2022-12-08T10:16:24.237Z,43.17
2022-12-08T10:21:31.677Z,43.63
2022-12-08T10:26:35.809Z,44.05
2022-12-08T10:31:38.695Z,44.12
2022-12-08T10:36:48.862Z,44.24
2022-12-08T10:41:53.765Z,44.13
2022-12-08T10:46:56.662Z,44.21
2022-12-08T10:51:59.662Z,44.41
2022-12-08T10:57:04.147Z,44.40
2022-12-08T11:02:09.230Z,44.83
2022-12-08T11:07:12.153Z,44.70
2022-12-08T11:12:16.552Z,44.56
2022-12-08T11:17:25.563Z,44.47
2022-12-08T11:22:30.964Z,44.49
2022-12-08T11:27:36.717Z,44.49
2022-12-08T11:32:41.356Z,44.56
2022-12-08T11:37:44.410Z,44.51
2022-12-08T11:42:53.102Z,44.20
2022-12-08T11:47:59.292Z,44.17
2022-12-08T11:53:02.136Z,44.34
2022-12-08T11:58:22.807Z,44.24
2022-12-08T12:03:29.810Z,44.55
2022-12-08T12:08:40.712Z,45.18
2022-12-08T12:13:54.263Z,45.16
2022-12-08T12:18:57.553Z,45.59
2022-12-08T12:24:00.960Z,45.65
2022-12-08T12:29:06.582Z,45.89
2022-12-08T12:34:11.981Z,46.03
2022-12-08T12:39:14.764Z,46.16
2022-12-08T12:44:37.408Z,46.39
2022-12-08T12:49:54.165Z,46.58
2022-12-08T12:55:21.589Z,46.71
2022-12-08T13:00:27.059Z,46.72
2022-12-08T13:05:30.845Z,46.60
2022-12-08T13:10:34.329Z,46.39
2022-12-08T13:15:39.603Z,46.14
2022-12-08T13:20:43.572Z,46.03
2022-12-08T13:25:51.385Z,45.96
2022-12-08T13:30:56.695Z,46.29
2022-12-08T13:36:07.181Z,46.15
2022-12-08T13:41:14.638Z,46.28
2022-12-08T13:47:03.228Z,46.41
2022-12-08T13:53:34.929Z,46.72
2022-12-08T13:57:11.576Z,46.90
2022-12-08T14:02:18.614Z,46.81
2022-12-08T14:07:21.957Z,47.09
2022-12-08T14:12:26.110Z,47.35
2022-12-08T14:17:30.318Z,47.29
2022-12-08T14:22:34.095Z,47.34
2022-12-08T14:27:37.769Z,48.05
2022-12-08T14:32:44.489Z,48.00
2022-12-08T14:37:48.198Z,48.25
2022-12-08T14:42:52.276Z,48.40
2022-12-08T14:47:56.371Z,48.71
2022-12-08T14:52:59.221Z,48.88
2022-12-08T14:58:02.191Z,49.12
2022-12-08T15:03:08.561Z,49.01
2022-12-08T15:08:12.795Z,49.27
2022-12-08T15:13:23.049Z,49.23
2022-12-08T15:18:33.410Z,49.59
2022-12-08T15:23:39.386Z,49.58
2022-12-08T15:28:42.310Z,50.05
2022-12-08T15:33:46.625Z,50.18
2022-12-08T15:38:49.372Z,50.12
2022-12-08T15:43:52.168Z,49.53
2022-12-08T15:48:58.276Z,49.31
2022-12-08T15:54:01.258Z,48.88
2022-12-08T15:59:04.042Z,48.17
2022-12-08T16:05:17.994Z,47.75
2022-12-08T16:09:32.577Z,47.86
2022-12-08T16:19:59.732Z,47.74
2022-12-08T16:25:17.641Z,47.50
2022-12-08T16:30:21.624Z,47.57
2022-12-08T16:35:25.729Z,47.83
2022-12-08T16:40:28.559Z,47.50
2022-12-08T16:45:31.446Z,47.52
2022-12-08T16:50:36.013Z,47.45
2022-12-08T16:55:39.328Z,47.06
2022-12-08T17:00:42.177Z,47.29
2022-12-08T17:05:46.542Z,47.40
2022-12-08T17:11:07.087Z,47.66
2022-12-08T17:16:10.540Z,47.96
2022-12-08T17:21:15.805Z,47.91
2022-12-08T17:26:18.663Z,47.87
2022-12-08T17:31:23.466Z,47.36
2022-12-08T17:36:31.982Z,46.67
2022-12-08T17:41:34.750Z,46.22
2022-12-08T17:46:42.097Z,45.51
2022-12-08T17:51:49.061Z,45.56
2022-12-08T17:56:51.883Z,45.74
2022-12-08T18:01:54.836Z,45.19
2022-12-08T18:07:01.144Z,45.07
2022-12-08T18:12:03.965Z,45.18
2022-12-08T18:17:06.996Z,45.28
2022-12-08T18:22:12.230Z,45.23
2022-12-08T18:27:15.011Z,44.67
2022-12-08T18:32:17.851Z,44.48
2022-12-08T18:37:22.057Z,44.44
2022-12-08T18:42:25.154Z,44.91
2022-12-08T18:47:28.169Z,43.75
2022-12-08T18:52:33.477Z,43.99
2022-12-08T18:57:38.196Z,44.46
2022-12-08T19:02:41.046Z,43.33
2022-12-08T19:07:45.651Z,43.41
2022-12-08T19:12:50.743Z,43.27
2022-12-08T19:17:53.517Z,43.19
2022-12-08T19:22:57.770Z,43.12
2022-12-08T19:28:00.529Z,43.05
2022-12-08T19:33:03.297Z,42.70
2022-12-08T19:38:07.521Z,42.87
2022-12-08T19:43:47.501Z,42.69
2022-12-08T19:48:50.302Z,42.58
2022-12-08T19:53:54.729Z,42.58
2022-12-08T19:58:57.594Z,42.55
2022-12-08T20:04:00.382Z,42.44
2022-12-08T20:09:04.828Z,42.63
2022-12-08T20:14:07.531Z,42.06
2022-12-08T20:19:10.545Z,42.37
2022-12-08T20:24:14.722Z,42.33
2022-12-08T20:29:18.738Z,41.93
2022-12-08T20:34:21.497Z,42.17
2022-12-08T20:39:25.656Z,41.94
2022-12-08T20:44:29.301Z,41.92
2022-12-08T20:49:34.745Z,41.93
2022-12-08T20:54:39.518Z,41.91
2022-12-08T20:59:42.414Z,41.79
2022-12-08T21:04:45.584Z,41.74
2022-12-08T21:09:50.211Z,41.54
2022-12-08T21:14:53.395Z,41.77
2022-12-08T21:19:56.321Z,41.44
2022-12-08T21:25:00.565Z,41.78
2022-12-08T21:30:03.764Z,41.48
2022-12-08T21:35:07.994Z,41.65
2022-12-08T21:40:13.787Z,41.61
2022-12-08T21:45:17.684Z,41.38
2022-12-08T21:50:20.872Z,41.77
2022-12-08T21:55:25.405Z,42.48
2022-12-08T22:00:28.277Z,42.41
2022-12-08T22:05:31.531Z,42.54
2022-12-08T22:10:35.693Z,42.66
2022-12-08T22:15:39.287Z,42.62
2022-12-08T22:20:44.169Z,43.23
2022-12-08T22:25:56.454Z,43.10
2022-12-08T22:30:59.283Z,43.06
2022-12-08T22:36:09.673Z,43.02
2022-12-08T22:41:15.034Z,43.10
2022-12-08T22:46:19.856Z,42.95
2022-12-08T22:51:22.957Z,43.63
2022-12-08T22:56:27.329Z,43.45
2022-12-08T23:01:30.822Z,43.62
2022-12-08T23:06:33.779Z,43.78
2022-12-08T23:11:38.112Z,44.05
2022-12-08T23:16:41.102Z,44.09
2022-12-08T23:21:44.184Z,44.17
